Terminal Aerodrome Forecast
Issued by NWS

Home | Current Version | Previous Version | Text Only | Print | Product List | Glossary On
Versions: 1 2 3 4 5 6 7 8 9 10 11 12 13 14
012
FTUS45 KGJT 221121
TAFDRO
TAF
KDRO 221121Z 2212/2312 09005KT P6SM SCT060 BKN200
     FM221900 17008KT P6SM VCTS SCT070CB BKN100
     FM230300 32006KT P6SM VCSH BKN100=

USA.gov is the U.S. government's official web portal to all federal, state and local government web resources and services.